Terminal Aerodrome Forecast
Issued by NWS Wilmington, OH

Current Version | Previous Version | Graphics & Text | Print | Product List | Glossary On
Versions: 1 2 3 4 5 6 7 8 9 10 11 12 13 14 15 16 17 18 19 20 21 22
000
FTUS41 KILN 262320
TAFCVG
TAF
KCVG 262320Z 2700/2806 20008KT P6SM SCT040 BKN200
     FM270200 18005KT P6SM SCT040 BKN250
      TEMPO 2709/2713 4SM BR
     FM271600 19010KT P6SM BKN040
     FM280100 16006KT P6SM SCT040 BKN250=

USA.gov is the U.S. government's official web portal to all federal, state and local government web resources and services.